Time;durP1;ratioP1;P1;durP2;ratioP2;P2;SDS_P1;SDS_P2;PMS_P1;PMS_P2;Temp;Humidity;BMP_temperature;BMP_pressure;BME280_temperature;BME280_humidity;BME280_pressure;Samples;Min_cycle;Max_cycle;Signal;HPM_P1;HPM_P2
2023/01/22 00:00:14;;;;;;;17.30;13.85;;;0.10;99.90;;;;;;5013019;28;20033;-74
2023/01/22 00:02:40;;;;;;;13.43;11.90;;;0.00;99.90;;;;;;5015815;28;20022;-73
2023/01/22 00:05:06;;;;;;;14.15;12.45;;;0.00;99.90;;;;;;5005635;28;20014;-74
2023/01/22 00:07:32;;;;;;;15.43;13.77;;;0.00;99.90;;;;;;5015701;28;20050;-74
2023/01/22 00:09:58;;;;;;;13.07;11.70;;;-0.10;99.90;;;;;;5013845;28;20026;-74
2023/01/22 00:12:25;;;;;;;13.18;11.95;;;0.00;99.90;;;;;;5014181;28;20368;-73
2023/01/22 00:14:51;;;;;;;13.23;11.82;;;0.00;99.90;;;;;;5011983;28;20065;-74
2023/01/22 00:17:17;;;;;;;13.73;12.23;;;0.10;99.90;;;;;;5015140;28;20056;-74
2023/01/22 00:19:43;;;;;;;11.75;10.63;;;0.10;99.90;;;;;;5009136;28;20029;-75
2023/01/22 00:22:10;;;;;;;14.38;12.35;;;0.10;99.90;;;;;;5017478;28;20390;-75
2023/01/22 00:24:36;;;;;;;13.32;12.02;;;0.00;99.90;;;;;;5012397;28;20030;-74
2023/01/22 00:27:02;;;;;;;14.85;11.45;;;0.00;99.90;;;;;;5017245;28;20025;-75
2023/01/22 00:29:27;;;;;;;13.35;11.75;;;0.00;99.90;;;;;;5007954;28;20037;-75
2023/01/22 00:31:53;;;;;;;13.00;11.80;;;-0.10;99.90;;;;;;5016408;28;20486;-74
2023/01/22 00:34:19;;;;;;;13.90;12.05;;;-0.10;99.90;;;;;;5009496;28;20084;-74
2023/01/22 00:36:44;;;;;;;11.40;9.35;;;-0.10;99.90;;;;;;5009460;28;20082;-74
2023/01/22 00:39:10;;;;;;;13.50;11.73;;;-0.10;99.90;;;;;;5010531;28;20483;-74
2023/01/22 00:41:36;;;;;;;13.07;11.15;;;-0.10;99.90;;;;;;5015845;28;20113;-74
2023/01/22 00:44:02;;;;;;;11.98;10.68;;;-0.10;99.90;;;;;;5010565;28;20068;-74
2023/01/22 00:46:28;;;;;;;11.02;9.98;;;-0.10;99.90;;;;;;5017241;28;20030;-74
2023/01/22 00:48:53;;;;;;;13.35;12.00;;;-0.10;99.90;;;;;;5009861;28;20520;-75
2023/01/22 00:51:19;;;;;;;12.52;11.23;;;-0.10;99.90;;;;;;5015640;28;20048;-75
2023/01/22 00:53:45;;;;;;;12.40;11.07;;;-0.10;99.90;;;;;;5011885;28;20037;-74
2023/01/22 00:56:13;;;;;;;12.70;11.40;;;-0.10;99.90;;;;;;5014044;28;20017;-75
2023/01/22 00:58:38;;;;;;;11.93;10.68;;;-0.10;99.90;;;;;;5012647;28;20109;-74
2023/01/22 01:01:05;;;;;;;13.88;12.48;;;-0.10;99.90;;;;;;5015362;28;20022;-74
2023/01/22 01:03:31;;;;;;;15.07;13.57;;;-0.20;99.90;;;;;;5011905;28;20053;-75
2023/01/22 01:06:04;;;;;;;12.00;10.88;;;-0.10;99.90;;;;;;5015802;28;20486;-74
2023/01/22 01:08:37;;;;;;;13.80;12.18;;;-0.20;99.90;;;;;;5013990;28;20056;-74
2023/01/22 01:11:06;;;;;;;12.02;10.90;;;-0.20;99.90;;;;;;5016343;28;20093;-74
2023/01/22 01:13:37;;;;;;;15.18;13.57;;;-0.20;99.90;;;;;;5007872;28;20061;-74
2023/01/22 01:16:07;;;;;;;13.52;12.23;;;-0.20;99.90;;;;;;5000055;28;20023;-74
2023/01/22 01:18:34;;;;;;;;;;;-0.20;99.90;;;;;;5008732;28;20080;-74
2023/01/22 01:21:00;;;;;;;11.63;10.52;;;-0.20;99.90;;;;;;5011806;28;19989;-74
2023/01/22 01:23:27;;;;;;;15.23;13.55;;;-0.20;99.90;;;;;;5010194;28;20026;-73
2023/01/22 01:25:53;;;;;;;11.02;9.98;;;-0.30;99.90;;;;;;5005488;28;20041;-74
2023/01/22 01:28:19;;;;;;;14.02;12.50;;;-0.20;99.90;;;;;;5010223;28;20029;-73
2023/01/22 01:30:45;;;;;;;15.95;14.27;;;-0.20;99.90;;;;;;5008005;28;20034;-74
2023/01/22 01:33:11;;;;;;;15.18;13.68;;;-0.20;99.90;;;;;;5009795;28;20073;-74
2023/01/22 01:35:37;;;;;;;14.57;12.98;;;-0.20;99.90;;;;;;5014472;28;20378;-74
2023/01/22 01:38:03;;;;;;;15.35;12.95;;;-0.30;99.90;;;;;;5012158;28;20033;-74
2023/01/22 01:40:30;;;;;;;10.43;9.45;;;-0.30;99.90;;;;;;5008393;28;20034;-74
2023/01/22 01:42:56;;;;;;;14.90;13.43;;;-0.30;99.90;;;;;;5012929;28;20026;-74
2023/01/22 01:45:30;;;;;;;13.68;12.32;;;-0.30;99.90;;;;;;5008595;28;20694;-75
2023/01/22 01:48:05;;;;;;;11.95;10.75;;;-0.30;99.90;;;;;;5013006;28;20030;-74
2023/01/22 01:50:32;;;;;;;16.30;13.25;;;-0.30;99.90;;;;;;5013905;28;20050;-75
2023/01/22 01:52:59;;;;;;;13.30;11.88;;;-0.20;99.90;;;;;;5012773;28;20056;-74
2023/01/22 01:55:28;;;;;;;13.02;11.60;;;-0.30;99.90;;;;;;5003901;28;20029;-74
2023/01/22 01:57:58;;;;;;;15.68;12.77;;;-0.20;99.90;;;;;;5012739;28;20030;-74
2023/01/22 02:00:28;;;;;;;14.32;12.93;;;-0.30;99.90;;;;;;5012488;28;20028;-74
2023/01/22 02:02:55;;;;;;;14.18;12.70;;;-0.30;99.90;;;;;;5016769;28;20053;-75
2023/01/22 02:05:22;;;;;;;13.88;11.63;;;-0.20;99.90;;;;;;5018128;28;20382;-74
2023/01/22 02:07:48;;;;;;;12.75;11.48;;;-0.30;99.90;;;;;;5016051;28;20449;-74
2023/01/22 02:10:14;;;;;;;14.77;13.20;;;-0.30;99.90;;;;;;5011299;28;20030;-75
2023/01/22 02:12:40;;;;;;;13.80;12.40;;;-0.30;99.90;;;;;;5017732;28;20413;-74
2023/01/22 02:15:07;;;;;;;15.90;12.40;;;-0.30;99.90;;;;;;5001749;28;20522;-75
2023/01/22 02:17:33;;;;;;;13.00;11.77;;;-0.30;99.90;;;;;;5010345;28;20540;-75
2023/01/22 02:19:58;;;;;;;13.80;12.05;;;-0.30;99.90;;;;;;5018315;28;20025;-75
2023/01/22 02:22:34;;;;;;;12.68;11.48;;;-0.30;99.90;;;;;;5018577;28;20029;-75
2023/01/22 02:25:00;;;;;;;12.52;11.32;;;-0.30;99.90;;;;;;5009711;28;20030;-74
2023/01/22 02:27:26;;;;;;;13.63;12.23;;;-0.30;99.90;;;;;;5013219;28;20263;-74
2023/01/22 02:29:52;;;;;;;14.18;12.77;;;-0.40;99.90;;;;;;5008413;28;20034;-74
2023/01/22 02:32:18;;;;;;;13.88;12.45;;;-0.40;99.90;;;;;;5017305;28;20104;-74
2023/01/22 02:34:43;;;;;;;13.55;12.25;;;-0.40;99.90;;;;;;5013815;28;20030;-74
2023/01/22 02:37:10;;;;;;;14.43;12.93;;;-0.40;99.90;;;;;;5018016;28;20034;-74
2023/01/22 02:39:36;;;;;;;15.90;14.20;;;-0.40;99.90;;;;;;5011915;28;20021;-74
2023/01/22 02:42:03;;;;;;;15.32;13.73;;;-0.40;99.90;;;;;;5019234;28;20038;-75
2023/01/22 02:44:29;;;;;;;14.25;12.85;;;-0.40;99.90;;;;;;5012668;28;20022;-74
2023/01/22 02:46:55;;;;;;;14.93;13.35;;;-0.50;99.90;;;;;;5019326;28;20033;-74
2023/01/22 02:49:21;;;;;;;12.80;11.50;;;-0.50;99.90;;;;;;5013283;28;20022;-74
2023/01/22 02:51:46;;;;;;;13.18;11.88;;;-0.50;99.90;;;;;;5019360;28;20056;-74
2023/01/22 02:54:12;;;;;;;15.25;13.75;;;-0.60;99.90;;;;;;5014215;28;20026;-74
2023/01/22 02:56:38;;;;;;;15.75;14.18;;;-0.60;99.90;;;;;;5015683;28;20387;-74
2023/01/22 02:59:04;;;;;;;12.93;11.70;;;-0.60;99.90;;;;;;5010965;28;20026;-74
2023/01/22 03:01:30;;;;;;;11.93;10.85;;;-0.60;99.90;;;;;;5014786;28;20018;-74
2023/01/22 03:03:58;;;;;;;14.65;13.25;;;-0.60;99.90;;;;;;5010532;28;20038;-74
2023/01/22 03:06:26;;;;;;;13.15;11.77;;;-0.60;99.90;;;;;;5014606;28;20030;-74
2023/01/22 03:08:54;;;;;;;14.93;13.38;;;-0.60;99.90;;;;;;5012328;28;20034;-74
2023/01/22 03:11:21;;;;;;;13.77;12.40;;;-0.60;99.90;;;;;;5014864;28;20038;-74
2023/01/22 03:22:01;;;;;;;16.02;14.40;;;-0.60;99.90;;;;;;5018968;28;20029;-74
2023/01/22 03:24:27;;;;;;;15.60;14.00;;;-0.60;99.90;;;;;;5010098;28;20485;-75
2023/01/22 03:26:53;;;;;;;15.82;14.23;;;-0.60;99.90;;;;;;5024638;28;20030;-74
2023/01/22 03:29:18;;;;;;;13.82;12.63;;;-0.70;99.90;;;;;;5010581;28;20026;-74
2023/01/22 03:31:47;;;;;;;16.58;14.80;;;-0.80;99.90;;;;;;5017314;28;20113;-74
2023/01/22 03:34:16;;;;;;;17.25;15.43;;;-0.80;99.90;;;;;;5011666;28;20028;-74
2023/01/22 03:36:42;;;;;;;16.13;14.38;;;-0.80;99.90;;;;;;5017077;28;20483;-74
2023/01/22 03:39:09;;;;;;;15.25;13.68;;;-0.90;99.90;;;;;;5010473;28;20963;-74
2023/01/22 03:41:34;;;;;;;14.77;13.27;;;-0.80;99.90;;;;;;5016824;28;20026;-74
2023/01/22 03:44:02;;;;;;;20.25;15.25;;;-0.80;99.90;;;;;;5011427;28;20033;-74
2023/01/22 03:46:28;;;;;;;16.67;13.73;;;-0.80;99.90;;;;;;5016940;28;20040;-74
2023/01/22 03:48:54;;;;;;;17.70;14.30;;;-0.80;99.90;;;;;;5010447;28;20026;-75
2023/01/22 03:51:21;;;;;;;13.32;12.13;;;-0.70;99.90;;;;;;5013911;28;20478;-75
2023/01/22 03:53:47;;;;;;;19.15;13.27;;;-0.70;99.90;;;;;;5008585;28;20478;-74
2023/01/22 03:56:19;;;;;;;18.00;15.30;;;-0.70;99.90;;;;;;5013371;28;20033;-74
2023/01/22 03:58:45;;;;;;;15.30;13.80;;;-0.70;99.90;;;;;;5010532;28;20029;-74
2023/01/22 04:01:14;;;;;;;16.35;14.20;;;-0.70;99.90;;;;;;5010940;28;20032;-74
2023/01/22 04:03:40;;;;;;;13.55;12.18;;;-0.70;99.90;;;;;;5012215;28;20030;-74
2023/01/22 04:06:07;;;;;;;14.90;13.27;;;-0.70;99.90;;;;;;5010105;28;20033;-74
2023/01/22 04:08:34;;;;;;;15.77;13.43;;;-0.70;99.90;;;;;;5013190;28;20025;-74
2023/01/22 04:11:01;;;;;;;15.10;12.85;;;-0.70;99.90;;;;;;5011796;28;20101;-74
2023/01/22 04:13:28;;;;;;;14.80;13.02;;;-0.70;99.90;;;;;;5009488;28;20033;-74
2023/01/22 04:15:54;;;;;;;15.40;13.07;;;-0.70;99.90;;;;;;5000015;28;20045;-74
2023/01/22 04:18:20;;;;;;;17.80;14.63;;;-0.60;99.90;;;;;;5011237;28;20421;-74
2023/01/22 04:20:50;;;;;;;15.52;13.85;;;-0.60;99.90;;;;;;5011194;28;20459;-74
2023/01/22 04:23:16;;;;;;;15.40;13.88;;;-0.60;99.90;;;;;;5004805;28;20026;-74
2023/01/22 04:25:43;;;;;;;14.52;11.90;;;-0.60;99.90;;;;;;5005270;28;20023;-74
2023/01/22 04:28:09;;;;;;;14.70;13.20;;;-0.50;99.90;;;;;;5013159;28;20033;-74
2023/01/22 04:30:38;;;;;;;15.63;13.68;;;-0.60;99.90;;;;;;5007176;28;20034;-74
2023/01/22 04:33:04;;;;;;;16.70;14.45;;;-0.50;99.90;;;;;;5012900;28;20076;-74
2023/01/22 04:35:31;;;;;;;17.52;15.48;;;-0.50;99.90;;;;;;5007539;28;20034;-74
2023/01/22 04:37:57;;;;;;;15.82;13.75;;;-0.50;99.90;;;;;;5015191;28;20109;-74
2023/01/22 04:40:24;;;;;;;16.55;14.95;;;-0.60;99.90;;;;;;5008136;28;20026;-74
2023/01/22 04:42:49;;;;;;;13.30;12.02;;;-0.60;99.90;;;;;;5013499;28;20026;-74
2023/01/22 04:45:15;;;;;;;13.30;11.98;;;-0.50;99.90;;;;;;5007585;28;20110;-74
2023/01/22 04:47:43;;;;;;;13.93;12.57;;;-0.60;99.90;;;;;;5015203;28;20110;-74
2023/01/22 04:50:16;;;;;;;17.25;14.38;;;-0.50;99.90;;;;;;5007723;28;20031;-75
2023/01/22 04:52:42;;;;;;;11.73;10.55;;;-0.50;99.90;;;;;;5015021;28;20153;-74
2023/01/22 04:55:08;;;;;;;16.52;14.80;;;-0.50;99.90;;;;;;5006017;28;20062;-74
2023/01/22 04:57:34;;;;;;;17.80;15.18;;;-0.40;99.90;;;;;;5013227;28;20026;-74
2023/01/22 05:00:00;;;;;;;17.10;15.38;;;-0.40;99.90;;;;;;5002995;28;20033;-74
2023/01/22 05:02:25;;;;;;;17.15;13.88;;;-0.40;99.90;;;;;;5015883;28;20018;-74
2023/01/22 05:04:51;;;;;;;17.80;15.25;;;-0.40;99.90;;;;;;5004337;28;20077;-74
2023/01/22 05:07:17;;;;;;;19.15;15.48;;;-0.40;99.90;;;;;;5015385;28;20036;-74
2023/01/22 05:09:42;;;;;;;16.10;13.00;;;-0.40;99.90;;;;;;5005357;28;20130;-74
2023/01/22 05:12:08;;;;;;;16.83;14.98;;;-0.30;99.90;;;;;;5016926;28;20022;-74
2023/01/22 05:14:34;;;;;;;12.25;11.05;;;-0.30;99.90;;;;;;5001171;28;20118;-74
2023/01/22 05:16:59;;;;;;;15.57;13.98;;;-0.20;99.90;;;;;;5005134;28;20129;-73
2023/01/22 05:19:25;;;;;;;13.07;11.75;;;-0.30;99.90;;;;;;5004390;28;20026;-74
2023/01/22 05:21:51;;;;;;;13.68;12.20;;;-0.30;99.90;;;;;;5016874;28;20037;-74
2023/01/22 05:24:17;;;;;;;14.32;12.57;;;-0.30;99.90;;;;;;5008861;28;20557;-74
2023/01/22 05:26:44;;;;;;;13.70;12.38;;;-0.30;99.90;;;;;;5006794;28;20073;-74
2023/01/22 05:29:09;;;;;;;16.58;12.75;;;-0.20;99.90;;;;;;5007969;28;20112;-74
2023/01/22 05:31:35;;;;;;;18.55;13.25;;;-0.30;99.90;;;;;;5008268;28;20117;-74
2023/01/22 05:34:02;;;;;;;15.35;13.63;;;-0.20;99.90;;;;;;5010067;28;20034;-74
2023/01/22 05:36:27;;;;;;;16.58;14.80;;;-0.20;99.90;;;;;;5017730;28;20076;-74
2023/01/22 05:38:53;;;;;;;15.32;12.93;;;-0.20;99.90;;;;;;5013821;28;20917;-74
2023/01/22 05:41:19;;;;;;;15.00;12.18;;;-0.20;99.90;;;;;;5014173;28;20382;-74
2023/01/22 05:43:44;;;;;;;16.90;14.70;;;-0.20;99.90;;;;;;5011856;28;20038;-74
2023/01/22 05:46:10;;;;;;;16.60;14.80;;;-0.20;99.90;;;;;;5015319;28;20033;-74
2023/01/22 05:48:36;;;;;;;18.00;13.23;;;-0.20;99.90;;;;;;5014318;28;20379;-74
2023/01/22 05:51:06;;;;;;;17.75;15.13;;;-0.20;99.90;;;;;;5018960;28;20399;-74
2023/01/22 05:53:33;;;;;;;;;;;-0.20;99.90;;;;;;5014063;28;20057;-74
2023/01/22 05:56:01;;;;;;;14.07;12.52;;;-0.20;99.90;;;;;;5010694;28;20361;-74
2023/01/22 05:58:31;;;;;;;17.05;14.75;;;-0.20;99.90;;;;;;5013994;28;20105;-74
2023/01/22 06:00:57;;;;;;;20.77;15.60;;;-0.20;99.90;;;;;;5014410;28;20567;-74
2023/01/22 06:03:23;;;;;;;18.15;16.10;;;-0.20;99.90;;;;;;5017025;28;20096;-74
2023/01/22 06:06:00;;;;;;;20.30;17.25;;;-0.20;99.90;;;;;;5019108;28;20034;-74
2023/01/22 06:08:26;;;;;;;18.20;14.43;;;-0.20;99.90;;;;;;5017199;28;20084;-74
2023/01/22 06:10:59;;;;;;;18.05;14.43;;;-0.20;99.90;;;;;;5010984;28;20032;-74
2023/01/22 06:13:24;;;;;;;14.68;13.25;;;-0.20;99.90;;;;;;5015926;28;20053;-74
2023/01/22 06:15:52;;;;;;;21.25;16.23;;;-0.20;99.90;;;;;;5013232;28;20033;-74
2023/01/22 06:18:18;;;;;;;14.90;12.38;;;-0.20;99.90;;;;;;5004758;28;20041;-74
2023/01/22 06:20:44;;;;;;;18.73;13.32;;;-0.20;99.90;;;;;;5013660;28;20022;-74
2023/01/22 06:23:10;;;;;;;12.13;10.93;;;-0.20;99.90;;;;;;5016679;28;20497;-74
2023/01/22 06:25:35;;;;;;;17.48;14.68;;;-0.20;99.90;;;;;;5014277;28;20026;-74
2023/01/22 06:28:01;;;;;;;17.27;15.20;;;-0.20;99.90;;;;;;5015687;28;20104;-74
2023/01/22 06:30:27;;;;;;;20.25;15.88;;;-0.20;99.90;;;;;;5015129;28;20038;-74
2023/01/22 06:32:53;;;;;;;19.15;15.32;;;-0.20;99.90;;;;;;5015278;28;20113;-74
2023/01/22 06:35:19;;;;;;;19.95;15.85;;;-0.20;99.90;;;;;;5018664;28;20022;-74
2023/01/22 06:37:45;;;;;;;19.80;15.02;;;-0.30;99.90;;;;;;5016450;28;20042;-74
2023/01/22 06:40:11;;;;;;;20.27;16.77;;;-0.30;99.90;;;;;;5008926;28;20030;-74
2023/01/22 06:42:37;;;;;;;21.40;16.30;;;-0.30;99.90;;;;;;5015850;28;20018;-74
2023/01/22 06:45:03;;;;;;;18.00;14.00;;;-0.30;99.90;;;;;;5010018;28;20025;-74
2023/01/22 06:47:29;;;;;;;21.60;17.02;;;-0.30;99.90;;;;;;5017011;28;20512;-74
2023/01/22 06:49:54;;;;;;;25.15;17.65;;;-0.30;99.90;;;;;;5011000;28;20478;-74
2023/01/22 06:52:20;;;;;;;20.13;14.18;;;-0.30;99.90;;;;;;5016873;28;20042;-74
2023/01/22 06:54:46;;;;;;;22.60;16.85;;;-0.30;99.90;;;;;;5003628;28;20039;-73
2023/01/22 06:57:11;;;;;;;18.35;15.70;;;-0.30;99.90;;;;;;5018829;28;20049;-73
2023/01/22 06:59:37;;;;;;;18.70;16.10;;;-0.30;99.90;;;;;;5012600;28;20045;-73
2023/01/22 07:02:03;;;;;;;22.75;17.60;;;-0.30;99.90;;;;;;5019125;28;20021;-75
2023/01/22 07:04:29;;;;;;;24.02;18.15;;;-0.30;99.90;;;;;;5007347;28;20109;-76
2023/01/22 07:06:54;;;;;;;16.88;14.43;;;-0.40;99.90;;;;;;5018800;28;20113;-73
2023/01/22 07:09:20;;;;;;;13.55;11.75;;;-0.40;99.90;;;;;;5008059;28;20030;-73
2023/01/22 07:11:46;;;;;;;21.25;17.52;;;-0.40;99.90;;;;;;5017963;28;20501;-74
2023/01/22 07:14:12;;;;;;;20.38;16.83;;;-0.40;99.90;;;;;;5005554;28;20031;-74
2023/01/22 07:16:37;;;;;;;20.45;15.80;;;-0.40;99.90;;;;;;5007209;28;20038;-73
2023/01/22 07:19:03;;;;;;;18.20;16.30;;;-0.40;99.90;;;;;;5011193;28;20101;-74
2023/01/22 07:21:29;;;;;;;16.98;14.27;;;-0.40;99.90;;;;;;5015035;28;20109;-74
2023/01/22 07:23:54;;;;;;;20.50;18.25;;;-0.40;99.90;;;;;;5010452;28;20026;-74
2023/01/22 07:26:20;;;;;;;21.02;16.92;;;-0.40;99.90;;;;;;5004855;28;20031;-74
2023/01/22 07:28:46;;;;;;;18.15;14.13;;;-0.40;99.90;;;;;;5005379;28;20033;-74
2023/01/22 07:31:12;;;;;;;19.77;15.20;;;-0.50;99.90;;;;;;5010365;28;20101;-75
2023/01/22 07:33:38;;;;;;;21.55;18.58;;;-0.50;99.90;;;;;;5010895;28;20061;-74
2023/01/22 07:36:04;;;;;;;23.52;18.50;;;-0.50;99.90;;;;;;5011691;28;20437;-73
2023/01/22 07:38:30;;;;;;;23.45;14.82;;;-0.50;99.90;;;;;;5012271;28;20442;-74
2023/01/22 07:41:02;;;;;;;21.73;18.08;;;-0.50;99.90;;;;;;5011526;28;20026;-73
2023/01/22 07:43:28;;;;;;;20.20;16.15;;;-0.60;99.90;;;;;;5011520;28;20049;-74
2023/01/22 07:45:56;;;;;;;21.05;18.20;;;-0.50;99.90;;;;;;5013589;28;20018;-75
2023/01/22 07:48:23;;;;;;;20.38;16.88;;;-0.60;99.90;;;;;;5011341;28;20065;-75
2023/01/22 07:50:48;;;;;;;22.20;17.60;;;-0.60;99.90;;;;;;5009729;28;20529;-74
2023/01/22 07:53:14;;;;;;;19.80;14.75;;;-0.60;99.90;;;;;;5013159;28;20133;-74
2023/01/22 07:55:40;;;;;;;25.67;20.02;;;-0.60;99.90;;;;;;5014114;28;20033;-75
2023/01/22 07:58:07;;;;;;;18.42;16.55;;;-0.60;99.90;;;;;;5013910;28;20030;-74
2023/01/22 08:00:34;;;;;;;25.65;19.42;;;-0.70;99.90;;;;;;5015033;28;20018;-75
2023/01/22 08:03:02;;;;;;;18.67;16.73;;;-0.70;99.90;;;;;;5015186;28;20032;-75
2023/01/22 08:05:28;;;;;;;21.52;17.10;;;-0.70;99.90;;;;;;5008661;28;20473;-74
2023/01/22 08:07:53;;;;;;;21.85;17.23;;;-0.70;99.90;;;;;;5014285;28;20564;-75
2023/01/22 08:10:19;;;;;;;26.48;20.33;;;-0.70;99.90;;;;;;4998555;28;20027;-76
2023/01/22 08:12:45;;;;;;;21.75;18.38;;;-0.70;99.90;;;;;;5009736;28;20091;-74
2023/01/22 08:15:11;;;;;;;24.83;19.98;;;-0.70;99.90;;;;;;5000514;28;20102;-75
2023/01/22 08:17:37;;;;;;;15.18;13.60;;;-0.70;99.90;;;;;;5009220;28;20026;-75
2023/01/22 08:20:04;;;;;;;22.77;18.73;;;-0.80;99.90;;;;;;5014416;28;20033;-75
2023/01/22 08:22:30;;;;;;;22.05;17.30;;;-0.70;99.90;;;;;;5016166;28;20045;-74
2023/01/22 08:24:56;;;;;;;25.85;20.17;;;-0.70;99.90;;;;;;5010088;28;20034;-75
2023/01/22 08:27:22;;;;;;;23.02;15.80;;;-0.70;99.90;;;;;;5015087;28;20025;-75
2023/01/22 08:29:50;;;;;;;26.65;22.10;;;-0.70;99.90;;;;;;5006483;28;20426;-74
2023/01/22 08:32:18;;;;;;;26.95;20.52;;;-0.70;99.90;;;;;;5012391;28;20053;-75
2023/01/22 08:34:44;;;;;;;21.10;16.83;;;-0.60;99.90;;;;;;5008477;28;20041;-75
2023/01/22 08:37:09;;;;;;;29.65;19.95;;;-0.60;99.90;;;;;;5012379;28;20026;-74
2023/01/22 08:39:35;;;;;;;27.98;20.10;;;-0.60;99.90;;;;;;5014313;28;20058;-75
2023/01/22 08:42:01;;;;;;;26.65;22.00;;;-0.60;99.90;;;;;;5010456;28;20018;-74
2023/01/22 08:44:27;;;;;;;23.48;18.58;;;-0.50;99.90;;;;;;5010974;28;20505;-75
2023/01/22 08:46:52;;;;;;;25.40;18.55;;;-0.50;99.90;;;;;;5012311;28;20076;-75
2023/01/22 08:49:20;;;;;;;28.92;23.40;;;-0.40;99.90;;;;;;5011350;28;20030;-75
2023/01/22 08:51:46;;;;;;;27.92;19.65;;;-0.40;99.90;;;;;;5016044;28;20398;-74
2023/01/22 08:54:12;;;;;;;30.58;20.85;;;-0.40;99.90;;;;;;5012915;28;20034;-75
2023/01/22 08:56:37;;;;;;;31.15;21.20;;;-0.40;99.90;;;;;;5014273;28;20086;-75
2023/01/22 08:59:05;;;;;;;28.63;21.73;;;-0.30;99.90;;;;;;5015186;28;20037;-75
2023/01/22 09:01:31;;;;;;;30.05;21.27;;;-0.30;99.90;;;;;;5015715;28;20490;-74
2023/01/22 09:03:57;;;;;;;34.10;20.15;;;-0.20;99.90;;;;;;5014846;28;20477;-75
2023/01/22 09:06:25;;;;;;;30.83;22.63;;;-0.20;99.90;;;;;;5016683;28;20026;-75
2023/01/22 09:08:51;;;;;;;30.75;21.33;;;-0.20;99.90;;;;;;5006788;28;20030;-74
2023/01/22 09:11:17;;;;;;;25.13;18.33;;;-0.20;99.90;;;;;;5012326;28;20037;-74
2023/01/22 09:13:43;;;;;;;24.48;18.92;;;-0.10;99.90;;;;;;5008569;28;20038;-75
2023/01/22 09:16:11;;;;;;;26.45;21.23;;;0.00;99.90;;;;;;5011769;28;20029;-74
2023/01/22 09:18:38;;;;;;;34.53;21.33;;;0.00;99.90;;;;;;5012868;28;20113;-74
2023/01/22 09:21:04;;;;;;;30.80;24.88;;;0.10;99.90;;;;;;5015601;28;20026;-74
2023/01/22 09:23:30;;;;;;;31.67;22.98;;;0.10;99.90;;;;;;5014817;28;20021;-74
2023/01/22 09:25:56;;;;;;;23.10;18.15;;;0.20;99.90;;;;;;5015566;28;20017;-75
2023/01/22 09:28:22;;;;;;;26.73;21.40;;;0.30;99.90;;;;;;5014164;28;20490;-74
2023/01/22 09:30:48;;;;;;;26.73;20.80;;;0.30;99.90;;;;;;5013848;28;20103;-74
2023/01/22 09:33:14;;;;;;;31.73;23.13;;;0.40;99.90;;;;;;5013411;28;20034;-74
2023/01/22 09:35:39;;;;;;;27.95;15.43;;;0.30;99.90;;;;;;5015047;28;20050;-74
2023/01/22 09:38:05;;;;;;;26.77;16.83;;;0.30;99.90;;;;;;5012234;28;20030;-74
2023/01/22 09:40:42;;;;;;;23.38;18.13;;;0.30;99.90;;;;;;5015902;28;20054;-73
2023/01/22 09:43:30;;;;;;;26.90;21.42;;;0.30;99.90;;;;;;5012682;28;20397;-73
2023/01/22 09:46:00;;;;;;;23.17;18.23;;;0.40;99.90;;;;;;5014890;28;20021;-73
2023/01/22 09:48:38;;;;;;;25.90;17.13;;;0.50;99.90;;;;;;5012794;28;20030;-74
2023/01/22 09:51:05;;;;;;;22.23;18.67;;;0.50;99.90;;;;;;5015074;28;20042;-74
2023/01/22 09:53:32;;;;;;;27.13;19.73;;;0.40;99.90;;;;;;5011792;28;20550;-74
2023/01/22 09:56:00;;;;;;;28.25;16.67;;;0.40;99.90;;;;;;5012571;28;20041;-75
2023/01/22 09:58:26;;;;;;;26.33;19.88;;;0.30;99.90;;;;;;5012130;28;20053;-74
2023/01/22 10:00:58;;;;;;;26.30;19.08;;;0.30;99.90;;;;;;5013986;28;20433;-74
2023/01/22 10:03:24;;;;;;;27.70;19.00;;;0.20;99.90;;;;;;5012769;28;20057;-74
2023/01/22 10:05:58;;;;;;;22.77;15.38;;;0.30;99.90;;;;;;5027470;28;20037;-74
2023/01/22 10:09:14;;;;;;;25.95;16.00;;;0.30;99.90;;;;;;5011917;28;20018;-74
2023/01/22 10:11:39;;;;;;;28.88;19.73;;;0.40;99.90;;;;;;5032012;28;20394;-74
2023/01/22 10:14:11;;;;;;;32.75;22.17;;;0.40;99.90;;;;;;5011502;28;20152;-75
2023/01/22 10:16:37;;;;;;;26.70;19.23;;;0.50;99.90;;;;;;5014523;28;20065;-74
2023/01/22 10:19:18;;;;;;;26.48;18.65;;;0.50;99.90;;;;;;5011813;28;20072;-74
2023/01/22 10:21:49;;;;;;;29.63;22.85;;;0.50;99.90;;;;;;5014552;28;20106;-74
2023/01/22 10:24:15;;;;;;;25.48;19.00;;;0.40;99.90;;;;;;5013212;28;20022;-74
2023/01/22 10:26:47;;;;;;;25.30;18.40;;;0.40;99.90;;;;;;5016218;28;20096;-74
2023/01/22 10:29:28;;;;;;;24.08;17.10;;;0.30;99.90;;;;;;5015663;28;20026;-75
2023/01/22 10:31:56;;;;;;;31.52;22.92;;;0.30;99.90;;;;;;5018771;28;20105;-74
2023/01/22 10:34:33;;;;;;;27.80;21.02;;;0.50;99.90;;;;;;5014605;28;20029;-74
2023/01/22 10:37:20;;;;;;;27.45;18.38;;;0.60;99.90;;;;;;5013298;28;20095;-74
2023/01/22 10:39:47;;;;;;;33.28;19.00;;;0.60;99.90;;;;;;5012653;28;20612;-74
2023/01/22 10:42:18;;;;;;;31.10;21.48;;;0.60;99.90;;;;;;5016894;28;20441;-74
2023/01/22 10:44:43;;;;;;;27.70;19.45;;;0.50;99.90;;;;;;5013841;28;20030;-74
2023/01/22 10:47:19;;;;;;;27.63;19.10;;;0.50;99.90;;;;;;5018471;28;20026;-75
2023/01/22 10:49:45;;;;;;;24.02;17.55;;;0.50;99.90;;;;;;5014995;28;20026;-75
2023/01/22 10:52:31;;;;;;;25.58;17.67;;;0.50;99.90;;;;;;5017974;28;20054;-74
2023/01/22 10:54:59;;;;;;;25.77;17.02;;;0.40;99.90;;;;;;5030351;28;20410;-74
2023/01/22 10:57:36;;;;;;;28.58;19.08;;;0.50;99.90;;;;;;5015699;28;20030;-74
2023/01/22 11:00:14;;;;;;;35.47;21.85;;;0.40;99.90;;;;;;5015479;28;20030;-74
2023/01/22 11:02:45;;;;;;;25.42;19.02;;;0.40;99.90;;;;;;5013556;28;20505;-74
2023/01/22 11:05:32;;;;;;;17.77;13.60;;;0.40;99.90;;;;;;5014549;28;20088;-74
2023/01/22 11:08:05;;;;;;;29.30;22.63;;;0.50;99.90;;;;;;5015621;28;20506;-74
2023/01/22 11:10:44;;;;;;;26.50;18.20;;;0.50;99.90;;;;;;5015371;28;20034;-74
2023/01/22 11:13:44;;;;;;;33.08;23.50;;;0.60;99.90;;;;;;5012331;28;20143;-74
2023/01/22 11:16:22;;;;;;;31.05;19.00;;;0.60;99.90;;;;;;5012949;28;20152;-75
2023/01/22 11:18:51;;;;;;;37.20;21.88;;;0.50;99.90;;;;;;5014915;28;20038;-74
2023/01/22 11:21:28;;;;;;;33.80;21.45;;;0.40;99.90;;;;;;5015991;28;20090;-74
2023/01/22 11:24:14;;;;;;;31.42;21.73;;;0.30;99.90;;;;;;5013573;28;20021;-74
2023/01/22 11:26:52;;;;;;;22.70;17.17;;;0.20;99.90;;;;;;5015110;28;20041;-74
2023/01/22 11:29:39;;;;;;;35.60;22.35;;;0.30;99.90;;;;;;5013290;28;20030;-74
2023/01/22 11:32:28;;;;;;;29.45;22.13;;;0.30;99.90;;;;;;5017212;28;20033;-74
2023/01/22 11:35:19;;;;;;;31.80;23.10;;;0.30;99.90;;;;;;5014195;28;20491;-71
2023/01/22 11:38:11;;;;;;;30.73;18.10;;;0.30;99.90;;;;;;5015576;28;20053;-74
2023/01/22 11:41:07;;;;;;;23.80;16.60;;;0.30;99.90;;;;;;5013446;28;20029;-75
2023/01/22 11:43:54;;;;;;;30.35;20.05;;;0.30;99.90;;;;;;5010447;28;20021;-74
2023/01/22 11:46:56;;;;;;;30.90;21.73;;;0.30;99.90;;;;;;5015785;28;20068;-74
2023/01/22 11:49:33;;;;;;;36.83;21.10;;;0.30;99.90;;;;;;5012910;28;20018;-75
2023/01/22 11:52:25;;;;;;;20.60;16.75;;;0.30;99.90;;;;;;5016283;28;20054;-75
2023/01/22 11:54:59;;;;;;;19.75;15.75;;;0.30;99.90;;;;;;5012327;28;20169;-75
2023/01/22 11:57:56;;;;;;;29.75;22.40;;;0.20;99.90;;;;;;5016046;28;20030;-74
2023/01/22 12:00:59;;;;;;;21.67;16.15;;;0.30;99.90;;;;;;5015822;28;20538;-75
2023/01/22 12:03:49;;;;;;;27.40;20.30;;;0.40;99.90;;;;;;5014455;28;20034;-74
2023/01/22 12:06:31;;;;;;;30.33;20.90;;;0.30;99.90;;;;;;5015702;28;20072;-75
2023/01/22 12:09:15;;;;;;;32.78;22.67;;;0.30;99.90;;;;;;5014981;28;20064;-74
2023/01/22 12:11:59;;;;;;;32.42;19.35;;;0.40;99.90;;;;;;5014843;28;20486;-75
2023/01/22 12:14:31;;;;;;;29.65;19.55;;;0.40;99.90;;;;;;5012107;28;20037;-74
2023/01/22 12:17:10;;;;;;;33.00;21.55;;;0.40;99.90;;;;;;5016034;28;20036;-74
2023/01/22 12:20:00;;;;;;;23.95;15.63;;;0.40;99.90;;;;;;5011978;28;20065;-75
2023/01/22 12:22:43;;;;;;;29.58;22.88;;;0.40;99.90;;;;;;5015271;28;20022;-74
2023/01/22 12:25:32;;;;;;;33.83;24.35;;;0.40;99.90;;;;;;5012730;28;20025;-74
2023/01/22 12:28:10;;;;;;;25.98;17.63;;;0.50;99.90;;;;;;5012964;28;20025;-74
2023/01/22 12:30:49;;;;;;;31.17;22.58;;;0.40;99.90;;;;;;5013655;28;20036;-74
2023/01/22 12:33:21;;;;;;;29.85;19.80;;;0.30;99.90;;;;;;5010948;28;20032;-74
2023/01/22 12:35:49;;;;;;;32.28;22.88;;;0.40;99.90;;;;;;5013520;28;20029;-74
2023/01/22 12:38:27;;;;;;;42.35;25.63;;;0.30;99.90;;;;;;5013410;28;20030;-74
2023/01/22 12:40:58;;;;;;;36.05;24.73;;;0.30;99.90;;;;;;5012346;28;20061;-74
2023/01/22 12:43:56;;;;;;;26.30;17.75;;;0.30;99.90;;;;;;5012752;28;20498;-75
2023/01/22 12:46:24;;;;;;;34.85;24.17;;;0.30;99.90;;;;;;5029364;28;20558;-74
2023/01/22 12:49:04;;;;;;;33.85;24.75;;;0.30;99.90;;;;;;5012690;28;20030;-74